sensor_id;sensor_type;location;lat;lon;timestamp;pressure;altitude;pressure_sealevel;temperature;humidity
70833;BME280;58452;59.418;17.962;2023-06-22T00:00:27;100883.44;;;20.05;68.74
70833;BME280;58452;59.418;17.962;2023-06-22T00:02:52;100886.03;;;19.98;69.18
70833;BME280;58452;59.418;17.962;2023-06-22T00:05:18;100885.41;;;19.89;69.27
70833;BME280;58452;59.418;17.962;2023-06-22T00:07:43;100880.00;;;19.91;69.09
70833;BME280;58452;59.418;17.962;2023-06-22T00:10:09;100883.44;;;19.98;69.17
70833;BME280;58452;59.418;17.962;2023-06-22T00:12:34;100882.03;;;20.02;69.68
70833;BME280;58452;59.418;17.962;2023-06-22T00:14:59;100872.94;;;20.05;69.18
70833;BME280;58452;59.418;17.962;2023-06-22T00:17:25;100876.59;;;20.10;69.45
70833;BME280;58452;59.418;17.962;2023-06-22T00:19:50;100877.81;;;20.14;69.26
70833;BME280;58452;59.418;17.962;2023-06-22T00:22:19;100875.56;;;19.98;69.50
70833;BME280;58452;59.418;17.962;2023-06-22T00:24:53;100873.75;;;19.98;70.00
70833;BME280;58452;59.418;17.962;2023-06-22T00:27:19;100868.53;;;19.98;69.70
70833;BME280;58452;59.418;17.962;2023-06-22T00:29:44;100871.72;;;19.94;69.48
70833;BME280;58452;59.418;17.962;2023-06-22T00:32:09;100865.91;;;19.92;69.18
70833;BME280;58452;59.418;17.962;2023-06-22T00:34:35;100862.06;;;20.01;69.62
70833;BME280;58452;59.418;17.962;2023-06-22T00:37:00;100867.53;;;20.06;69.90
70833;BME280;58452;59.418;17.962;2023-06-22T00:39:25;100868.94;;;20.02;69.71
70833;BME280;58452;59.418;17.962;2023-06-22T00:41:51;100868.69;;;19.84;69.43
70833;BME280;58452;59.418;17.962;2023-06-22T00:44:16;100865.03;;;19.72;70.15
70833;BME280;58452;59.418;17.962;2023-06-22T00:46:41;100861.25;;;19.81;70.33
70833;BME280;58452;59.418;17.962;2023-06-22T00:49:07;100864.44;;;19.83;70.30
70833;BME280;58452;59.418;17.962;2023-06-22T00:51:32;100866.66;;;19.73;70.68
70833;BME280;58452;59.418;17.962;2023-06-22T00:53:58;100875.69;;;19.64;70.81
70833;BME280;58452;59.418;17.962;2023-06-22T00:56:24;100871.50;;;19.76;70.51
70833;BME280;58452;59.418;17.962;2023-06-22T00:58:50;100871.50;;;19.76;70.39
70833;BME280;58452;59.418;17.962;2023-06-22T01:01:18;100869.28;;;19.79;70.78
70833;BME280;58452;59.418;17.962;2023-06-22T01:03:48;100877.13;;;19.73;71.51
70833;BME280;58452;59.418;17.962;2023-06-22T01:06:16;100862.75;;;19.56;71.82
70833;BME280;58452;59.418;17.962;2023-06-22T01:09:12;100874.84;;;19.57;71.85
70833;BME280;58452;59.418;17.962;2023-06-22T01:12:00;100877.28;;;19.52;72.03
70833;BME280;58452;59.418;17.962;2023-06-22T01:14:38;100870.94;;;19.33;72.90
70833;BME280;58452;59.418;17.962;2023-06-22T01:17:07;100868.50;;;19.31;73.17
70833;BME280;58452;59.418;17.962;2023-06-22T01:19:46;100872.38;;;19.42;73.09
70833;BME280;58452;59.418;17.962;2023-06-22T01:22:15;100859.06;;;19.37;73.21
70833;BME280;58452;59.418;17.962;2023-06-22T01:29:56;100856.69;;;19.42;73.77
70833;BME280;58452;59.418;17.962;2023-06-22T01:32:30;100851.88;;;19.52;73.66
70833;BME280;58452;59.418;17.962;2023-06-22T01:34:58;100853.72;;;19.58;73.26
70833;BME280;58452;59.418;17.962;2023-06-22T01:37:25;100858.75;;;19.60;73.29
70833;BME280;58452;59.418;17.962;2023-06-22T01:39:51;100859.78;;;19.59;73.79
70833;BME280;58452;59.418;17.962;2023-06-22T01:42:18;100850.88;;;19.60;73.66
70833;BME280;58452;59.418;17.962;2023-06-22T01:44:43;100854.69;;;19.50;73.53
70833;BME280;58452;59.418;17.962;2023-06-22T01:47:09;100852.63;;;19.39;74.82
70833;BME280;58452;59.418;17.962;2023-06-22T01:49:36;100854.44;;;19.39;74.92
70833;BME280;58452;59.418;17.962;2023-06-22T01:52:02;100855.88;;;19.41;75.25
70833;BME280;58452;59.418;17.962;2023-06-22T01:54:28;100860.47;;;19.39;75.18
70833;BME280;58452;59.418;17.962;2023-06-22T01:56:53;100860.34;;;19.47;75.37
70833;BME280;58452;59.418;17.962;2023-06-22T02:02:07;100867.88;;;19.29;76.40
70833;BME280;58452;59.418;17.962;2023-06-22T02:04:44;100864.91;;;19.39;76.31
70833;BME280;58452;59.418;17.962;2023-06-22T02:07:14;100864.09;;;19.38;76.30
70833;BME280;58452;59.418;17.962;2023-06-22T02:09:44;100872.06;;;19.24;76.94
70833;BME280;58452;59.418;17.962;2023-06-22T02:12:12;100865.19;;;19.16;77.14
70833;BME280;58452;59.418;17.962;2023-06-22T02:14:39;100857.13;;;19.11;78.24
70833;BME280;58452;59.418;17.962;2023-06-22T02:17:05;100861.75;;;19.09;78.44
70833;BME280;58452;59.418;17.962;2023-06-22T02:19:36;100869.38;;;19.04;79.11
70833;BME280;58452;59.418;17.962;2023-06-22T02:22:01;100864.50;;;19.01;79.46
70833;BME280;58452;59.418;17.962;2023-06-22T02:24:27;100863.66;;;18.94;79.97
70833;BME280;58452;59.418;17.962;2023-06-22T02:26:57;100873.28;;;18.87;80.17
70833;BME280;58452;59.418;17.962;2023-06-22T02:29:22;100865.44;;;18.87;80.81
70833;BME280;58452;59.418;17.962;2023-06-22T02:31:48;100874.50;;;18.84;80.95
70833;BME280;58452;59.418;17.962;2023-06-22T02:34:13;100868.44;;;18.84;81.05
70833;BME280;58452;59.418;17.962;2023-06-22T02:36:46;100869.69;;;18.88;81.10
70833;BME280;58452;59.418;17.962;2023-06-22T02:41:44;100868.91;;;18.94;81.33
70833;BME280;58452;59.418;17.962;2023-06-22T02:44:09;100866.38;;;19.07;80.30
70833;BME280;58452;59.418;17.962;2023-06-22T02:46:35;100865.34;;;19.08;80.83
70833;BME280;58452;59.418;17.962;2023-06-22T02:49:01;100865.28;;;18.95;81.27
70833;BME280;58452;59.418;17.962;2023-06-22T02:51:26;100869.53;;;18.96;81.55
70833;BME280;58452;59.418;17.962;2023-06-22T02:53:52;100865.69;;;18.64;82.80
70833;BME280;58452;59.418;17.962;2023-06-22T02:56:22;100867.13;;;18.67;82.59
70833;BME280;58452;59.418;17.962;2023-06-22T02:58:53;100874.84;;;18.75;82.75
70833;BME280;58452;59.418;17.962;2023-06-22T03:01:18;100866.41;;;18.79;82.44
70833;BME280;58452;59.418;17.962;2023-06-22T03:03:49;100870.47;;;18.82;82.51
70833;BME280;58452;59.418;17.962;2023-06-22T03:06:15;100872.66;;;18.78;82.75
70833;BME280;58452;59.418;17.962;2023-06-22T03:08:40;100883.31;;;18.83;82.83
70833;BME280;58452;59.418;17.962;2023-06-22T03:11:07;100881.28;;;18.79;82.67
70833;BME280;58452;59.418;17.962;2023-06-22T03:13:33;100879.97;;;18.89;82.54
70833;BME280;58452;59.418;17.962;2023-06-22T03:15:58;100879.59;;;18.99;82.43
70833;BME280;58452;59.418;17.962;2023-06-22T03:18:24;100875.38;;;18.98;82.15
70833;BME280;58452;59.418;17.962;2023-06-22T03:20:49;100885.00;;;18.97;81.74
70833;BME280;58452;59.418;17.962;2023-06-22T03:23:14;100875.56;;;18.96;81.84
70833;BME280;58452;59.418;17.962;2023-06-22T03:25:41;100880.13;;;18.88;82.41
70833;BME280;58452;59.418;17.962;2023-06-22T03:28:06;100882.13;;;18.86;81.93
70833;BME280;58452;59.418;17.962;2023-06-22T03:30:32;100884.41;;;18.68;83.06
70833;BME280;58452;59.418;17.962;2023-06-22T03:32:57;100886.50;;;18.79;82.35
70833;BME280;58452;59.418;17.962;2023-06-22T03:35:23;100876.34;;;18.63;83.02
70833;BME280;58452;59.418;17.962;2023-06-22T03:37:48;100874.78;;;18.68;83.01
70833;BME280;58452;59.418;17.962;2023-06-22T03:40:13;100877.97;;;18.64;83.18
70833;BME280;58452;59.418;17.962;2023-06-22T03:42:39;100879.00;;;18.69;83.07
70833;BME280;58452;59.418;17.962;2023-06-22T03:45:05;100875.59;;;18.69;82.94
70833;BME280;58452;59.418;17.962;2023-06-22T03:47:30;100877.38;;;18.68;82.84
70833;BME280;58452;59.418;17.962;2023-06-22T03:49:56;100876.25;;;18.77;83.24
70833;BME280;58452;59.418;17.962;2023-06-22T03:52:22;100877.78;;;18.65;82.60
70833;BME280;58452;59.418;17.962;2023-06-22T03:54:48;100885.22;;;18.68;83.12
70833;BME280;58452;59.418;17.962;2023-06-22T03:57:13;100876.44;;;18.76;82.88
70833;BME280;58452;59.418;17.962;2023-06-22T03:59:38;100873.22;;;18.74;82.34
70833;BME280;58452;59.418;17.962;2023-06-22T04:02:04;100880.06;;;18.75;82.54
70833;BME280;58452;59.418;17.962;2023-06-22T04:04:29;100872.78;;;18.70;82.30
70833;BME280;58452;59.418;17.962;2023-06-22T04:06:55;100861.75;;;18.75;82.44
70833;BME280;58452;59.418;17.962;2023-06-22T04:09:20;100876.47;;;18.82;82.33
70833;BME280;58452;59.418;17.962;2023-06-22T04:11:47;100870.88;;;18.85;81.54
70833;BME280;58452;59.418;17.962;2023-06-22T04:14:12;100869.72;;;18.94;81.40
70833;BME280;58452;59.418;17.962;2023-06-22T04:16:37;100875.38;;;18.98;81.24
70833;BME280;58452;59.418;17.962;2023-06-22T04:19:03;100874.63;;;19.04;80.42
70833;BME280;58452;59.418;17.962;2023-06-22T04:21:28;100873.44;;;19.13;80.48
70833;BME280;58452;59.418;17.962;2023-06-22T04:23:54;100874.81;;;19.09;79.58
70833;BME280;58452;59.418;17.962;2023-06-22T04:26:20;100875.81;;;19.08;80.12
70833;BME280;58452;59.418;17.962;2023-06-22T04:28:47;100875.66;;;19.16;79.53
70833;BME280;58452;59.418;17.962;2023-06-22T04:31:17;100881.13;;;19.21;78.92
70833;BME280;58452;59.418;17.962;2023-06-22T04:33:42;100875.47;;;19.18;78.41
70833;BME280;58452;59.418;17.962;2023-06-22T04:36:07;100879.06;;;19.10;78.56
70833;BME280;58452;59.418;17.962;2023-06-22T04:38:33;100880.44;;;19.06;78.66
70833;BME280;58452;59.418;17.962;2023-06-22T04:40:58;100878.81;;;19.05;78.69
70833;BME280;58452;59.418;17.962;2023-06-22T04:43:26;100882.66;;;19.09;78.86
70833;BME280;58452;59.418;17.962;2023-06-22T04:45:55;100890.13;;;19.12;78.22
70833;BME280;58452;59.418;17.962;2023-06-22T04:48:21;100883.03;;;18.99;77.61
70833;BME280;58452;59.418;17.962;2023-06-22T04:50:46;100895.59;;;18.83;77.38
70833;BME280;58452;59.418;17.962;2023-06-22T04:53:11;100896.22;;;18.85;78.26
70833;BME280;58452;59.418;17.962;2023-06-22T04:55:38;100890.72;;;18.73;77.73
70833;BME280;58452;59.418;17.962;2023-06-22T04:58:07;100895.31;;;18.71;77.42
70833;BME280;58452;59.418;17.962;2023-06-22T05:00:33;100891.72;;;18.79;76.95
70833;BME280;58452;59.418;17.962;2023-06-22T05:03:01;100906.25;;;18.81;76.03
70833;BME280;58452;59.418;17.962;2023-06-22T05:05:28;100894.78;;;18.82;76.25
70833;BME280;58452;59.418;17.962;2023-06-22T05:07:56;100900.81;;;18.83;75.56
70833;BME280;58452;59.418;17.962;2023-06-22T05:10:25;100898.19;;;18.83;75.93
70833;BME280;58452;59.418;17.962;2023-06-22T05:12:50;100887.34;;;18.86;76.22
70833;BME280;58452;59.418;17.962;2023-06-22T05:15:16;100892.78;;;18.84;75.45
70833;BME280;58452;59.418;17.962;2023-06-22T05:17:41;100899.44;;;18.87;75.17
70833;BME280;58452;59.418;17.962;2023-06-22T05:20:13;100898.72;;;18.99;75.74
70833;BME280;58452;59.418;17.962;2023-06-22T05:22:39;100897.16;;;19.12;74.02
70833;BME280;58452;59.418;17.962;2023-06-22T05:25:09;100914.84;;;19.03;73.61
70833;BME280;58452;59.418;17.962;2023-06-22T05:27:34;100889.50;;;19.03;73.18
70833;BME280;58452;59.418;17.962;2023-06-22T05:30:05;100893.28;;;19.01;72.87
70833;BME280;58452;59.418;17.962;2023-06-22T05:32:32;100897.88;;;18.92;72.61
70833;BME280;58452;59.418;17.962;2023-06-22T05:34:57;100887.44;;;18.99;72.18
70833;BME280;58452;59.418;17.962;2023-06-22T05:37:22;100893.56;;;19.13;71.15
70833;BME280;58452;59.418;17.962;2023-06-22T05:39:48;100893.38;;;19.14;71.35
70833;BME280;58452;59.418;17.962;2023-06-22T05:42:13;100896.84;;;19.21;71.30
70833;BME280;58452;59.418;17.962;2023-06-22T05:44:39;100897.75;;;19.41;70.49
70833;BME280;58452;59.418;17.962;2023-06-22T05:47:06;100897.31;;;19.38;69.31
70833;BME280;58452;59.418;17.962;2023-06-22T05:49:31;100904.22;;;19.45;70.06
70833;BME280;58452;59.418;17.962;2023-06-22T05:51:58;100898.63;;;19.55;69.03
70833;BME280;58452;59.418;17.962;2023-06-22T05:54:24;100895.03;;;19.63;69.25
70833;BME280;58452;59.418;17.962;2023-06-22T05:56:50;100898.84;;;19.67;67.41
70833;BME280;58452;59.418;17.962;2023-06-22T05:59:16;100900.28;;;19.63;68.50
70833;BME280;58452;59.418;17.962;2023-06-22T06:01:41;100901.88;;;19.70;68.51
70833;BME280;58452;59.418;17.962;2023-06-22T06:04:07;100893.66;;;19.80;68.40
70833;BME280;58452;59.418;17.962;2023-06-22T06:06:35;100893.44;;;19.75;68.22
70833;BME280;58452;59.418;17.962;2023-06-22T06:09:05;100900.28;;;19.63;69.44
70833;BME280;58452;59.418;17.962;2023-06-22T06:11:31;100899.84;;;19.59;69.77
70833;BME280;58452;59.418;17.962;2023-06-22T06:13:57;100904.66;;;19.56;70.25
70833;BME280;58452;59.418;17.962;2023-06-22T06:16:22;100908.22;;;19.41;71.07
70833;BME280;58452;59.418;17.962;2023-06-22T06:18:48;100905.38;;;19.36;72.26
70833;BME280;58452;59.418;17.962;2023-06-22T06:21:16;100909.97;;;19.34;72.91
70833;BME280;58452;59.418;17.962;2023-06-22T06:23:42;100913.81;;;19.38;73.21
70833;BME280;58452;59.418;17.962;2023-06-22T06:26:07;100911.03;;;19.40;73.07
70833;BME280;58452;59.418;17.962;2023-06-22T06:28:33;100907.84;;;19.44;72.43
70833;BME280;58452;59.418;17.962;2023-06-22T06:30:59;100908.78;;;19.37;72.87
70833;BME280;58452;59.418;17.962;2023-06-22T06:33:24;100904.13;;;19.32;73.68
70833;BME280;58452;59.418;17.962;2023-06-22T06:35:50;100907.34;;;19.34;73.87
70833;BME280;58452;59.418;17.962;2023-06-22T06:38:15;100907.72;;;19.25;74.02
70833;BME280;58452;59.418;17.962;2023-06-22T06:40:41;100911.53;;;19.22;74.14
70833;BME280;58452;59.418;17.962;2023-06-22T06:43:06;100912.16;;;19.24;74.27
70833;BME280;58452;59.418;17.962;2023-06-22T06:45:31;100913.38;;;19.28;74.21
70833;BME280;58452;59.418;17.962;2023-06-22T06:47:59;100908.94;;;19.29;73.88
70833;BME280;58452;59.418;17.962;2023-06-22T06:50:25;100921.41;;;19.27;74.26
70833;BME280;58452;59.418;17.962;2023-06-22T06:52:50;100921.47;;;19.33;72.80
70833;BME280;58452;59.418;17.962;2023-06-22T06:55:16;100920.94;;;19.10;73.49
70833;BME280;58452;59.418;17.962;2023-06-22T06:57:42;100924.34;;;18.83;73.40
70833;BME280;58452;59.418;17.962;2023-06-22T07:00:10;100915.00;;;18.95;73.46
70833;BME280;58452;59.418;17.962;2023-06-22T07:02:38;100921.91;;;19.09;72.80
70833;BME280;58452;59.418;17.962;2023-06-22T07:05:05;100925.38;;;19.16;72.17
70833;BME280;58452;59.418;17.962;2023-06-22T07:07:31;100926.63;;;19.20;73.16
70833;BME280;58452;59.418;17.962;2023-06-22T07:09:56;100923.44;;;19.31;72.60
70833;BME280;58452;59.418;17.962;2023-06-22T07:12:22;100924.91;;;19.40;71.88
70833;BME280;58452;59.418;17.962;2023-06-22T07:14:47;100929.06;;;19.28;70.92
70833;BME280;58452;59.418;17.962;2023-06-22T07:17:13;100918.22;;;19.31;71.06
70833;BME280;58452;59.418;17.962;2023-06-22T07:19:38;100931.53;;;19.36;70.91
70833;BME280;58452;59.418;17.962;2023-06-22T07:22:22;100929.06;;;19.28;71.27
70833;BME280;58452;59.418;17.962;2023-06-22T07:24:47;100939.53;;;19.28;71.97
70833;BME280;58452;59.418;17.962;2023-06-22T07:27:14;100931.06;;;19.26;71.32
70833;BME280;58452;59.418;17.962;2023-06-22T07:29:43;100936.66;;;19.17;71.22
70833;BME280;58452;59.418;17.962;2023-06-22T07:32:09;100937.91;;;19.27;71.12
70833;BME280;58452;59.418;17.962;2023-06-22T07:34:34;100938.31;;;19.24;70.71
70833;BME280;58452;59.418;17.962;2023-06-22T07:37:00;100933.03;;;19.18;71.14
70833;BME280;58452;59.418;17.962;2023-06-22T07:39:25;100934.81;;;19.11;71.25
70833;BME280;58452;59.418;17.962;2023-06-22T07:41:52;100931.81;;;19.14;70.88
70833;BME280;58452;59.418;17.962;2023-06-22T07:44:17;100941.94;;;19.23;70.92
70833;BME280;58452;59.418;17.962;2023-06-22T07:46:43;100930.47;;;19.24;70.73
70833;BME280;58452;59.418;17.962;2023-06-22T07:49:08;100930.88;;;19.28;70.70
70833;BME280;58452;59.418;17.962;2023-06-22T07:51:34;100917.38;;;19.24;70.38
70833;BME280;58452;59.418;17.962;2023-06-22T07:53:59;100923.44;;;19.31;71.28
70833;BME280;58452;59.418;17.962;2023-06-22T07:56:25;100923.75;;;19.43;70.65
70833;BME280;58452;59.418;17.962;2023-06-22T07:58:50;100917.38;;;19.59;70.15
70833;BME280;58452;59.418;17.962;2023-06-22T08:01:16;100911.91;;;19.54;69.84
70833;BME280;58452;59.418;17.962;2023-06-22T08:03:42;100920.81;;;19.59;69.82
70833;BME280;58452;59.418;17.962;2023-06-22T08:06:09;100914.78;;;19.72;69.99
70833;BME280;58452;59.418;17.962;2023-06-22T08:08:37;100908.19;;;19.89;68.79
70833;BME280;58452;59.418;17.962;2023-06-22T08:11:03;100915.44;;;19.80;68.88
70833;BME280;58452;59.418;17.962;2023-06-22T08:13:28;100908.75;;;19.78;68.83
70833;BME280;58452;59.418;17.962;2023-06-22T08:15:54;100908.38;;;19.81;67.97
70833;BME280;58452;59.418;17.962;2023-06-22T08:18:19;100906.41;;;20.03;67.45
70833;BME280;58452;59.418;17.962;2023-06-22T08:20:45;100907.47;;;20.21;66.54
70833;BME280;58452;59.418;17.962;2023-06-22T08:23:10;100897.41;;;20.38;66.98
70833;BME280;58452;59.418;17.962;2023-06-22T08:25:36;100911.31;;;20.65;66.59
70833;BME280;58452;59.418;17.962;2023-06-22T08:28:02;100914.97;;;20.51;64.15
70833;BME280;58452;59.418;17.962;2023-06-22T08:30:27;100915.75;;;20.31;64.73
70833;BME280;58452;59.418;17.962;2023-06-22T08:32:53;100913.69;;;20.27;65.63
70833;BME280;58452;59.418;17.962;2023-06-22T08:35:21;100916.66;;;19.91;66.42
70833;BME280;58452;59.418;17.962;2023-06-22T08:37:47;100914.66;;;19.93;66.98
70833;BME280;58452;59.418;17.962;2023-06-22T08:40:17;100918.66;;;19.89;66.59
70833;BME280;58452;59.418;17.962;2023-06-22T08:42:42;100914.84;;;19.91;66.41
70833;BME280;58452;59.418;17.962;2023-06-22T08:45:09;100915.69;;;20.05;66.68
70833;BME280;58452;59.418;17.962;2023-06-22T08:47:34;100916.91;;;20.22;66.85
70833;BME280;58452;59.418;17.962;2023-06-22T08:49:59;100910.91;;;20.41;65.58
70833;BME280;58452;59.418;17.962;2023-06-22T08:52:27;100900.63;;;20.46;64.09
70833;BME280;58452;59.418;17.962;2023-06-22T08:54:53;100904.88;;;20.54;64.60
70833;BME280;58452;59.418;17.962;2023-06-22T08:57:18;100910.50;;;20.71;64.88
70833;BME280;58452;59.418;17.962;2023-06-22T08:59:43;100916.97;;;20.75;64.04
70833;BME280;58452;59.418;17.962;2023-06-22T09:02:09;100911.31;;;20.78;63.37
70833;BME280;58452;59.418;17.962;2023-06-22T09:04:34;100912.09;;;20.85;63.75
70833;BME280;58452;59.418;17.962;2023-06-22T09:07:00;100896.19;;;20.67;62.84
70833;BME280;58452;59.418;17.962;2023-06-22T09:09:26;100913.13;;;20.84;62.62
70833;BME280;58452;59.418;17.962;2023-06-22T09:11:52;100910.50;;;20.84;62.88
70833;BME280;58452;59.418;17.962;2023-06-22T09:14:17;100903.44;;;20.78;62.11
70833;BME280;58452;59.418;17.962;2023-06-22T09:16:42;100904.22;;;20.91;62.49
70833;BME280;58452;59.418;17.962;2023-06-22T09:19:08;100901.56;;;21.11;60.99
70833;BME280;58452;59.418;17.962;2023-06-22T09:21:33;100895.47;;;21.30;60.79
70833;BME280;58452;59.418;17.962;2023-06-22T09:23:59;100884.69;;;21.45;59.20
70833;BME280;58452;59.418;17.962;2023-06-22T09:26:24;100894.50;;;21.63;60.48
70833;BME280;58452;59.418;17.962;2023-06-22T09:28:50;100892.47;;;21.71;58.69
70833;BME280;58452;59.418;17.962;2023-06-22T09:31:15;100888.53;;;21.94;58.78
70833;BME280;58452;59.418;17.962;2023-06-22T09:33:42;100891.94;;;21.87;57.98
70833;BME280;58452;59.418;17.962;2023-06-22T09:36:08;100903.88;;;21.83;56.62
70833;BME280;58452;59.418;17.962;2023-06-22T09:38:37;100895.50;;;21.68;55.84
70833;BME280;58452;59.418;17.962;2023-06-22T09:41:03;100896.47;;;21.74;56.72
70833;BME280;58452;59.418;17.962;2023-06-22T09:43:30;100891.53;;;21.90;56.64
70833;BME280;58452;59.418;17.962;2023-06-22T09:45:56;100892.28;;;22.04;55.45
70833;BME280;58452;59.418;17.962;2023-06-22T09:48:21;100898.81;;;21.95;54.74
70833;BME280;58452;59.418;17.962;2023-06-22T09:50:47;100898.38;;;21.98;56.73
70833;BME280;58452;59.418;17.962;2023-06-22T09:53:12;100896.28;;;21.69;55.48
70833;BME280;58452;59.418;17.962;2023-06-22T09:55:38;100888.59;;;21.74;55.91
70833;BME280;58452;59.418;17.962;2023-06-22T09:58:03;100899.75;;;21.63;55.64
70833;BME280;58452;59.418;17.962;2023-06-22T10:00:28;100892.59;;;21.45;57.58
70833;BME280;58452;59.418;17.962;2023-06-22T10:02:54;100892.91;;;21.62;56.87
70833;BME280;58452;59.418;17.962;2023-06-22T10:05:21;100883.09;;;21.82;56.27
70833;BME280;58452;59.418;17.962;2023-06-22T10:07:46;100887.19;;;22.09;55.03
70833;BME280;58452;59.418;17.962;2023-06-22T10:10:12;100875.59;;;22.17;55.84
70833;BME280;58452;59.418;17.962;2023-06-22T10:12:47;100875.66;;;22.10;54.82
70833;BME280;58452;59.418;17.962;2023-06-22T10:15:13;100881.34;;;22.07;55.11
70833;BME280;58452;59.418;17.962;2023-06-22T10:17:38;100886.16;;;22.42;53.97
70833;BME280;58452;59.418;17.962;2023-06-22T10:20:06;100865.81;;;22.30;53.47
70833;BME280;58452;59.418;17.962;2023-06-22T10:22:40;100860.72;;;22.54;53.56
70833;BME280;58452;59.418;17.962;2023-06-22T10:25:06;100877.63;;;22.64;53.02
70833;BME280;58452;59.418;17.962;2023-06-22T10:27:32;100868.34;;;22.62;52.40
70833;BME280;58452;59.418;17.962;2023-06-22T10:29:57;100876.22;;;22.62;52.84
70833;BME280;58452;59.418;17.962;2023-06-22T10:32:23;100871.53;;;22.70;53.09
70833;BME280;58452;59.418;17.962;2023-06-22T10:34:48;100873.59;;;22.62;52.63
70833;BME280;58452;59.418;17.962;2023-06-22T10:37:14;100872.44;;;22.58;53.00
70833;BME280;58452;59.418;17.962;2023-06-22T10:39:40;100880.47;;;22.63;52.49
70833;BME280;58452;59.418;17.962;2023-06-22T10:42:06;100866.03;;;22.72;53.09
70833;BME280;58452;59.418;17.962;2023-06-22T10:44:32;100874.63;;;22.85;51.98
70833;BME280;58452;59.418;17.962;2023-06-22T10:46:57;100871.69;;;22.94;52.39
70833;BME280;58452;59.418;17.962;2023-06-22T10:49:22;100877.47;;;22.84;51.00
70833;BME280;58452;59.418;17.962;2023-06-22T10:51:48;100870.94;;;23.05;51.74
70833;BME280;58452;59.418;17.962;2023-06-22T10:54:13;100875.41;;;22.86;51.93
70833;BME280;58452;59.418;17.962;2023-06-22T10:56:40;100876.56;;;22.72;51.42
70833;BME280;58452;59.418;17.962;2023-06-22T10:59:05;100878.72;;;22.81;51.69
70833;BME280;58452;59.418;17.962;2023-06-22T11:01:30;100862.41;;;22.91;53.30
70833;BME280;58452;59.418;17.962;2023-06-22T11:03:56;100887.19;;;23.20;50.89
70833;BME280;58452;59.418;17.962;2023-06-22T11:06:22;100870.16;;;22.86;51.70
70833;BME280;58452;59.418;17.962;2023-06-22T11:08:47;100874.84;;;23.02;51.83
70833;BME280;58452;59.418;17.962;2023-06-22T11:11:13;100876.22;;;23.23;52.26
70833;BME280;58452;59.418;17.962;2023-06-22T11:13:38;100879.97;;;23.52;51.04
70833;BME280;58452;59.418;17.962;2023-06-22T11:16:04;100871.69;;;23.90;50.24
70833;BME280;58452;59.418;17.962;2023-06-22T11:18:31;100879.47;;;24.14;50.28
70833;BME280;58452;59.418;17.962;2023-06-22T11:20:58;100872.22;;;23.68;49.58
70833;BME280;58452;59.418;17.962;2023-06-22T11:23:24;100877.16;;;23.47;50.41
70833;BME280;58452;59.418;17.962;2023-06-22T11:25:51;100887.81;;;23.70;49.70
70833;BME280;58452;59.418;17.962;2023-06-22T11:28:16;100885.75;;;23.42;50.80
70833;BME280;58452;59.418;17.962;2023-06-22T11:30:42;100876.50;;;23.81;50.25
70833;BME280;58452;59.418;17.962;2023-06-22T11:33:07;100873.28;;;23.79;48.71
70833;BME280;58452;59.418;17.962;2023-06-22T11:35:33;100870.78;;;23.84;49.87
70833;BME280;58452;59.418;17.962;2023-06-22T11:37:58;100875.47;;;23.82;48.83
70833;BME280;58452;59.418;17.962;2023-06-22T11:40:24;100881.03;;;23.62;49.66
70833;BME280;58452;59.418;17.962;2023-06-22T11:42:49;100866.56;;;23.95;49.82
70833;BME280;58452;59.418;17.962;2023-06-22T11:45:14;100867.44;;;24.18;49.01
70833;BME280;58452;59.418;17.962;2023-06-22T11:47:40;100885.25;;;24.35;48.84
70833;BME280;58452;59.418;17.962;2023-06-22T11:50:06;100877.63;;;23.73;47.84
70833;BME280;58452;59.418;17.962;2023-06-22T11:52:33;100856.09;;;23.76;48.70
70833;BME280;58452;59.418;17.962;2023-06-22T11:54:59;100869.13;;;23.71;47.98
70833;BME280;58452;59.418;17.962;2023-06-22T11:57:24;100873.88;;;23.51;48.03
70833;BME280;58452;59.418;17.962;2023-06-22T11:59:50;100882.56;;;23.33;50.15
70833;BME280;58452;59.418;17.962;2023-06-22T12:02:15;100858.44;;;23.55;49.33
70833;BME280;58452;59.418;17.962;2023-06-22T12:04:40;100855.84;;;23.78;47.82
70833;BME280;58452;59.418;17.962;2023-06-22T12:07:06;100865.38;;;23.79;48.02
70833;BME280;58452;59.418;17.962;2023-06-22T12:09:32;100872.22;;;24.10;51.25
70833;BME280;58452;59.418;17.962;2023-06-22T12:11:58;100862.41;;;24.28;48.14
70833;BME280;58452;59.418;17.962;2023-06-22T12:14:23;100862.97;;;24.30;47.59
70833;BME280;58452;59.418;17.962;2023-06-22T12:16:48;100858.97;;;24.51;48.49
70833;BME280;58452;59.418;17.962;2023-06-22T12:19:14;100858.97;;;24.51;47.57
70833;BME280;58452;59.418;17.962;2023-06-22T12:21:40;100861.97;;;24.43;47.09
70833;BME280;58452;59.418;17.962;2023-06-22T12:24:06;100866.88;;;24.51;47.31
70833;BME280;58452;59.418;17.962;2023-06-22T12:26:31;100866.66;;;24.53;48.09
70833;BME280;58452;59.418;17.962;2023-06-22T12:28:56;100867.47;;;24.42;48.28
70833;BME280;58452;59.418;17.962;2023-06-22T12:31:22;100859.53;;;24.42;47.60
70833;BME280;58452;59.418;17.962;2023-06-22T12:33:48;100864.34;;;24.45;49.04
70833;BME280;58452;59.418;17.962;2023-06-22T12:36:13;100861.94;;;24.66;47.21
70833;BME280;58452;59.418;17.962;2023-06-22T12:38:38;100856.09;;;24.76;47.63
70833;BME280;58452;59.418;17.962;2023-06-22T12:41:04;100857.13;;;24.98;46.87
70833;BME280;58452;59.418;17.962;2023-06-22T12:43:29;100864.38;;;24.91;45.49
70833;BME280;58452;59.418;17.962;2023-06-22T12:45:54;100857.84;;;24.36;47.43